Terminal Aerodrome Forecast
Issued by NWS Cleveland, OH

Home | Current Version | Previous Version | Text Only | Print | Product List | Glossary On
Versions: 1 2 3 4 5 6 7 8 9 10 11 12 13 14 15 16 17 18 19 20 21 22 23 24 25 26 27 28
000
FTUS41 KCLE 012300
TAFCLE
TAF
KCLE 012330Z 0200/0306 21012G20KT P6SM VCSH BKN050
     FM020100 21010KT P6SM SCT060 BKN250
     FM021100 21006KT 5SM -RA OVC030
     FM021300 23006KT 4SM -RA BR OVC012
     FM021600 27008KT P6SM BKN015 OVC080
     FM021900 27008KT P6SM SCT020 BKN080
     FM022100 27006KT P6SM SCT080 BKN250=

USA.gov is the U.S. government's official web portal to all federal, state and local government web resources and services.